Time;durP1;ratioP1;P1;durP2;ratioP2;P2;SDS_P1;SDS_P2;PMS_P1;PMS_P2;Temp;Humidity;BMP_temperature;BMP_pressure;BME280_temperature;BME280_humidity;BME280_pressure;Samples;Min_cycle;Max_cycle;Signal;HPM_P1;HPM_P2
2021/12/12 00:01:45;;;;;;;66.97;30.00;;;1.40;99.90;;;;;;4937770;29;20190;-82
2021/12/12 00:04:15;;;;;;;58.43;26.23;;;1.30;99.90;;;;;;4955017;29;20190;-82
2021/12/12 00:06:49;;;;;;;66.63;30.87;;;1.30;99.90;;;;;;4954897;29;20246;-83
2021/12/12 00:09:20;;;;;;;65.23;31.00;;;1.30;99.90;;;;;;4954738;29;20167;-82
2021/12/12 00:11:46;;;;;;;62.43;27.80;;;1.20;99.90;;;;;;4954675;29;20183;-82
2021/12/12 00:14:20;;;;;;;61.00;28.53;;;1.20;99.90;;;;;;4937817;29;20187;-82
2021/12/12 00:16:46;;;;;;;65.90;29.67;;;1.20;99.90;;;;;;4954478;29;20207;-82
2021/12/12 00:19:12;;;;;;;62.27;29.47;;;1.20;99.90;;;;;;4954450;29;20265;-82
2021/12/12 00:21:41;;;;;;;60.47;28.93;;;1.20;99.90;;;;;;4937437;29;20572;-82
2021/12/12 00:24:09;;;;;;;63.07;28.40;;;1.20;99.90;;;;;;4937581;29;20637;-82
2021/12/12 00:26:35;;;;;;;58.07;28.10;;;1.20;99.90;;;;;;4937378;29;20180;-83
2021/12/12 00:29:02;;;;;;;61.60;28.60;;;1.20;99.90;;;;;;4937355;29;20258;-82
2021/12/12 00:31:28;;;;;;;63.30;27.90;;;1.20;99.90;;;;;;4954432;29;20694;-83
2021/12/12 00:33:56;;;;;;;66.10;31.07;;;1.20;99.90;;;;;;4937381;29;20188;-83
2021/12/12 00:36:24;;;;;;;66.67;30.23;;;1.20;99.90;;;;;;4937174;29;20198;-82
2021/12/12 00:39:05;;;;;;;71.63;32.57;;;1.20;99.90;;;;;;4937064;29;20248;-82
2021/12/12 00:41:40;;;;;;;64.43;28.73;;;1.20;99.90;;;;;;4937597;29;20213;-82
2021/12/12 00:44:06;;;;;;;67.03;29.93;;;1.20;99.90;;;;;;4955006;28;20166;-82
2021/12/12 00:46:32;;;;;;;66.00;30.57;;;;;;;;;;4958034;29;20190;-87
2021/12/12 00:48:58;;;;;;;67.07;32.53;;;1.20;99.90;;;;;;4957739;29;20190;-82
2021/12/12 00:51:32;;;;;;;68.67;32.00;;;1.30;99.90;;;;;;4957802;29;20249;-82
2021/12/12 00:53:59;;;;;;;78.23;30.97;;;1.20;99.90;;;;;;4957888;29;20198;-82
2021/12/12 00:56:24;;;;;;;68.87;32.13;;;1.20;99.90;;;;;;4940741;29;20179;-81
2021/12/12 00:58:50;;;;;;;64.63;30.17;;;1.20;99.90;;;;;;4924665;29;20222;-82
2021/12/12 01:01:34;;;;;;;80.47;31.00;;;1.20;99.90;;;;;;4940871;29;20191;-82
2021/12/12 01:04:16;;;;;;;63.00;29.53;;;1.20;99.90;;;;;;4940987;29;20178;-82
2021/12/12 01:06:42;;;;;;;64.73;29.70;;;1.20;99.90;;;;;;4940494;29;20210;-82
2021/12/12 01:09:20;;;;;;;66.87;29.40;;;1.20;99.90;;;;;;4958038;29;20191;-82
2021/12/12 01:11:49;;;;;;;64.17;29.53;;;1.30;99.90;;;;;;4957423;29;20225;-82
2021/12/12 01:14:20;;;;;;;70.37;31.30;;;1.30;99.90;;;;;;4957660;29;20175;-82
2021/12/12 01:16:53;;;;;;;65.00;32.57;;;1.30;99.90;;;;;;4940120;29;20175;-82
2021/12/12 01:19:29;;;;;;;67.10;31.63;;;1.30;99.90;;;;;;4957613;29;20251;-82
2021/12/12 01:22:04;;;;;;;62.80;28.87;;;1.20;99.90;;;;;;4939963;29;20188;-82
2021/12/12 01:24:34;;;;;;;61.77;28.53;;;1.20;99.90;;;;;;4940300;29;20693;-81
2021/12/12 01:27:02;;;;;;;65.30;30.90;;;1.20;99.90;;;;;;4939967;29;20198;-81
2021/12/12 01:29:28;;;;;;;65.90;28.83;;;1.20;99.90;;;;;;4957482;28;20245;-82
2021/12/12 01:31:56;;;;;;;69.53;29.07;;;1.20;99.90;;;;;;4957354;29;20597;-82
2021/12/12 01:34:28;;;;;;;67.93;30.60;;;1.20;99.90;;;;;;4940030;29;20216;-82
2021/12/12 01:39:37;;;;;;;64.83;27.60;;;1.20;99.90;;;;;;4957875;29;20195;-82
2021/12/12 01:42:10;;;;;;;59.40;29.43;;;1.10;99.90;;;;;;4924478;29;20597;-82
2021/12/12 01:44:45;;;;;;;67.53;27.43;;;1.20;99.90;;;;;;4957692;29;20178;-81
2021/12/12 01:47:25;;;;;;;65.13;29.90;;;1.10;99.90;;;;;;4957360;29;20618;-81
2021/12/12 01:49:55;;;;;;;63.60;27.43;;;1.10;99.90;;;;;;4957262;29;20172;-82
2021/12/12 01:52:24;;;;;;;62.50;28.90;;;1.10;99.90;;;;;;4957099;29;20234;-82
2021/12/12 01:54:54;;;;;;;56.33;27.30;;;1.10;99.90;;;;;;4939667;28;20273;-81
2021/12/12 01:57:27;;;;;;;61.80;28.50;;;1.10;99.90;;;;;;4956196;29;20294;-81
2021/12/12 01:59:55;;;;;;;57.17;26.17;;;1.10;99.90;;;;;;4939900;29;20615;-81
2021/12/12 02:02:31;;;;;;;56.53;27.37;;;1.10;99.90;;;;;;4956998;29;20186;-81
2021/12/12 02:05:00;;;;;;;64.20;29.07;;;1.10;99.90;;;;;;4957472;29;20171;-81
2021/12/12 02:07:31;;;;;;;57.07;26.00;;;1.10;99.90;;;;;;4956871;29;20190;-81
2021/12/12 02:10:00;;;;;;;54.90;26.63;;;1.10;99.90;;;;;;4957047;29;20616;-81
2021/12/12 02:12:27;;;;;;;55.83;26.43;;;1.10;99.90;;;;;;4957025;29;20179;-81
2021/12/12 02:14:56;;;;;;;55.53;26.47;;;1.10;99.90;;;;;;4939318;29;20187;-82
2021/12/12 02:17:30;;;;;;;57.83;25.87;;;1.10;99.90;;;;;;4956516;29;20251;-81
2021/12/12 02:20:17;;;;;;;54.17;25.93;;;1.20;99.90;;;;;;4959521;29;20173;-82
2021/12/12 02:36:31;;;;;;;58.03;25.67;;;1.20;99.90;;;;;;4980721;28;20189;-82
2021/12/12 02:38:58;;;;;;;48.40;25.63;;;1.20;99.90;;;;;;4980387;28;20199;-84
2021/12/12 02:41:26;;;;;;;61.50;27.27;;;1.20;99.90;;;;;;4969546;28;20183;-81
2021/12/12 02:43:58;;;;;;;59.70;26.57;;;1.20;99.90;;;;;;4943782;29;20190;-81
2021/12/12 02:46:29;;;;;;;58.13;28.03;;;1.20;99.90;;;;;;4966689;29;20190;-80
2021/12/12 02:49:10;;;;;;;61.57;27.37;;;1.20;99.90;;;;;;4980060;28;20169;-87
2021/12/12 02:51:40;;;;;;;60.53;27.00;;;1.20;99.90;;;;;;4963475;29;20234;-81
2021/12/12 02:54:08;;;;;;;58.40;26.30;;;1.10;99.90;;;;;;4977640;29;20171;-82
2021/12/12 02:56:38;;;;;;;56.83;26.90;;;1.20;99.90;;;;;;4957948;29;20186;-81
2021/12/12 02:59:08;;;;;;;58.47;27.17;;;1.10;99.90;;;;;;4943404;29;20214;-81
2021/12/12 03:01:58;;;;;;;60.33;27.27;;;1.10;99.90;;;;;;4939141;29;20347;-81
2021/12/12 03:04:25;;;;;;;57.83;27.17;;;1.10;99.90;;;;;;4955530;29;20387;-81
2021/12/12 03:06:51;;;;;;;62.27;27.33;;;1.10;99.90;;;;;;4922162;29;20588;-88
2021/12/12 03:09:25;;;;;;;59.77;28.20;;;1.20;99.90;;;;;;4938632;29;20186;-82
2021/12/12 03:11:58;;;;;;;59.03;28.97;;;1.10;99.90;;;;;;4955576;29;20175;-82
2021/12/12 03:14:31;;;;;;;58.90;28.07;;;1.10;99.90;;;;;;4955933;29;20172;-82
2021/12/12 03:16:59;;;;;;;59.43;28.50;;;1.10;99.90;;;;;;4955185;29;20160;-82
2021/12/12 03:19:25;;;;;;;62.97;29.67;;;1.10;99.90;;;;;;4923009;29;20191;-82
2021/12/12 03:21:51;;;;;;;63.10;29.10;;;1.10;99.90;;;;;;4938195;29;20653;-82
2021/12/12 03:24:20;;;;;;;60.70;29.30;;;0.80;99.90;;;;;;4922071;29;20281;-82
2021/12/12 03:26:50;;;;;;;68.03;29.27;;;1.00;99.90;;;;;;4955242;29;20173;-82
2021/12/12 03:29:16;;;;;;;67.37;30.10;;;1.10;99.90;;;;;;4955154;29;20232;-82
2021/12/12 03:31:47;;;;;;;57.80;27.33;;;1.10;99.90;;;;;;4938146;29;20183;-82
2021/12/12 03:34:17;;;;;;;62.93;28.77;;;1.10;99.90;;;;;;4937856;29;20231;-82
2021/12/12 03:36:44;;;;;;;64.37;28.80;;;1.10;99.90;;;;;;4955335;29;20630;-82
2021/12/12 03:39:15;;;;;;;65.13;28.97;;;1.10;99.90;;;;;;4954937;29;20219;-81
2021/12/12 03:41:41;;;;;;;59.83;28.20;;;1.10;99.90;;;;;;4938033;29;20179;-81
2021/12/12 03:44:12;;;;;;;56.10;27.80;;;1.10;99.90;;;;;;4954622;29;20184;-81
2021/12/12 03:46:39;;;;;;;67.03;29.70;;;1.10;99.90;;;;;;4955201;29;20167;-81
2021/12/12 03:49:06;;;;;;;63.53;27.13;;;1.00;99.90;;;;;;4921677;29;20217;-82
2021/12/12 03:51:33;;;;;;;52.27;26.73;;;1.10;99.90;;;;;;4937893;29;20217;-81
2021/12/12 03:53:59;;;;;;;57.07;28.60;;;1.10;99.90;;;;;;4938081;29;20194;-82
2021/12/12 03:56:26;;;;;;;57.83;26.57;;;1.10;99.90;;;;;;4937771;29;20183;-81
2021/12/12 03:58:53;;;;;;;60.13;27.20;;;1.10;99.90;;;;;;4938076;29;20218;-81
2021/12/12 04:01:32;;;;;;;53.83;26.77;;;1.10;99.90;;;;;;4937099;29;20187;-81
2021/12/12 04:04:04;;;;;;;55.20;26.30;;;1.10;99.90;;;;;;4954919;29;20185;-86
2021/12/12 04:06:30;;;;;;;55.20;27.47;;;1.00;99.90;;;;;;4955093;29;20254;-81
2021/12/12 04:08:57;;;;;;;56.57;27.43;;;1.10;99.90;;;;;;4954497;29;20325;-81
2021/12/12 04:11:38;;;;;;;50.73;26.40;;;1.10;99.90;;;;;;4954721;29;20234;-82
2021/12/12 04:14:05;;;;;;;57.10;26.73;;;1.10;99.90;;;;;;4937474;29;20668;-81
2021/12/12 04:16:37;;;;;;;56.60;27.27;;;1.00;99.90;;;;;;4937734;29;20183;-82
2021/12/12 04:19:04;;;;;;;54.40;25.63;;;1.00;99.90;;;;;;4954581;28;20285;-81
2021/12/12 04:21:30;;;;;;;55.97;27.10;;;1.10;99.90;;;;;;4941128;29;20254;-82
2021/12/12 04:23:57;;;;;;;59.53;27.47;;;1.00;99.90;;;;;;4958533;29;20175;-82
2021/12/12 04:26:32;;;;;;;59.50;27.40;;;1.00;99.90;;;;;;4941086;29;20278;-82
2021/12/12 04:29:00;;;;;;;54.63;26.87;;;1.00;99.90;;;;;;4958091;29;20711;-81
2021/12/12 04:31:27;;;;;;;62.07;27.33;;;1.00;99.90;;;;;;4940750;29;20270;-81
2021/12/12 04:33:53;;;;;;;63.87;27.57;;;1.00;99.90;;;;;;4925832;29;20250;-81
2021/12/12 04:36:26;;;;;;;53.97;27.13;;;1.00;99.90;;;;;;4940942;29;20238;-81
2021/12/12 04:39:07;;;;;;;59.53;28.63;;;1.00;99.90;;;;;;4940467;29;20211;-81
2021/12/12 04:41:34;;;;;;;57.40;26.83;;;1.00;99.90;;;;;;4958409;29;20233;-81
2021/12/12 04:44:00;;;;;;;64.00;28.30;;;1.00;99.90;;;;;;4958228;29;20187;-81
2021/12/12 04:46:37;;;;;;;57.20;25.80;;;1.00;99.90;;;;;;4958124;29;20182;-81
2021/12/12 04:51:58;;;;;;;58.30;26.70;;;1.10;99.90;;;;;;4943929;29;20181;-81
2021/12/12 04:54:37;;;;;;;61.63;27.07;;;1.00;99.90;;;;;;4940463;29;20538;-81
2021/12/12 04:57:12;;;;;;;68.13;31.93;;;1.10;99.90;;;;;;4940735;29;20183;-81
2021/12/12 04:59:59;;;;;;;167.77;105.20;;;1.10;99.90;;;;;;4940863;29;20253;-81
2021/12/12 05:02:40;;;;;;;157.57;99.63;;;1.10;99.90;;;;;;4957937;29;20172;-81
2021/12/12 05:05:13;;;;;;;116.53;69.00;;;1.10;99.90;;;;;;4940620;29;20187;-84
2021/12/12 05:08:11;;;;;;;134.17;77.93;;;1.10;99.90;;;;;;4940516;29;20278;-81
2021/12/12 05:10:46;;;;;;;155.80;94.07;;;1.10;99.90;;;;;;4957407;29;20175;-81
2021/12/12 05:13:18;;;;;;;108.97;58.97;;;1.10;99.90;;;;;;4940244;29;20181;-82
2021/12/12 05:15:49;;;;;;;115.13;62.30;;;1.10;99.90;;;;;;4940412;29;20190;-81
2021/12/12 05:18:19;;;;;;;107.90;53.20;;;1.10;99.90;;;;;;4940149;29;20261;-82
2021/12/12 05:20:52;;;;;;;74.87;34.13;;;1.20;99.90;;;;;;4940280;29;20191;-82
2021/12/12 05:23:23;;;;;;;67.60;30.37;;;1.20;99.90;;;;;;4939957;29;20194;-82
2021/12/12 05:26:09;;;;;;;60.87;28.13;;;1.20;99.90;;;;;;4957410;29;20251;-81
2021/12/12 05:28:48;;;;;;;58.43;28.30;;;1.10;99.90;;;;;;4957004;28;20223;-81
2021/12/12 05:31:17;;;;;;;68.37;28.40;;;1.20;99.90;;;;;;4957038;28;20178;-81
2021/12/12 05:33:45;;;;;;;59.27;27.50;;;1.10;99.90;;;;;;4940049;29;20191;-81
2021/12/12 05:36:13;;;;;;;61.87;27.53;;;1.10;99.90;;;;;;4956875;29;20635;-87
2021/12/12 05:38:40;;;;;;;61.70;27.73;;;1.10;99.90;;;;;;4956823;29;20218;-81
2021/12/12 05:41:07;;;;;;;59.47;26.33;;;1.10;99.90;;;;;;4924264;29;20229;-82
2021/12/12 05:43:34;;;;;;;59.77;27.13;;;1.10;99.90;;;;;;4956677;29;20584;-81
2021/12/12 05:46:01;;;;;;;62.53;27.53;;;1.10;99.90;;;;;;4939919;29;20207;-81
2021/12/12 05:48:28;;;;;;;61.67;28.67;;;1.10;99.90;;;;;;4956897;29;20254;-81
2021/12/12 05:50:54;;;;;;;60.27;26.50;;;1.10;99.90;;;;;;4940170;29;20187;-81
2021/12/12 05:53:21;;;;;;;60.73;27.63;;;1.10;99.90;;;;;;4939346;29;20201;-81
2021/12/12 05:55:49;;;;;;;64.03;28.30;;;1.10;99.90;;;;;;4956976;29;20181;-80
2021/12/12 05:58:19;;;;;;;67.77;29.03;;;1.00;99.90;;;;;;4956232;29;20310;-82
2021/12/12 06:00:55;;;;;;;59.90;27.40;;;1.00;99.90;;;;;;4939342;29;20205;-81
2021/12/12 06:03:25;;;;;;;57.03;26.33;;;1.00;99.90;;;;;;4939374;29;20237;-81
2021/12/12 06:05:53;;;;;;;55.60;26.93;;;0.90;99.90;;;;;;4956825;29;20181;-83
2021/12/12 06:08:21;;;;;;;67.47;27.83;;;0.90;99.90;;;;;;4956861;29;20186;-81
2021/12/12 06:10:47;;;;;;;63.00;28.27;;;0.90;99.90;;;;;;4939359;29;20179;-81
2021/12/12 06:13:16;;;;;;;77.57;32.40;;;0.90;99.90;;;;;;4939369;29;20247;-81
2021/12/12 06:15:45;;;;;;;68.57;29.27;;;0.90;99.90;;;;;;4956273;29;20218;-81
2021/12/12 06:18:13;;;;;;;75.50;30.37;;;0.80;99.90;;;;;;4956433;29;20680;-83
2021/12/12 06:20:40;;;;;;;66.33;27.63;;;0.90;99.90;;;;;;4939200;29;20195;-81
2021/12/12 06:23:08;;;;;;;71.03;31.67;;;0.80;99.90;;;;;;4953232;29;20190;-81
2021/12/12 06:25:35;;;;;;;76.50;31.17;;;0.80;99.90;;;;;;4933262;29;20187;-82
2021/12/12 06:28:01;;;;;;;66.53;31.17;;;;;;;;;;4919733;29;20739;-81
2021/12/12 06:30:27;;;;;;;76.80;29.67;;;0.70;99.90;;;;;;4919782;29;20210;-81
2021/12/12 06:32:53;;;;;;;70.83;31.33;;;0.70;99.90;;;;;;4919915;29;20565;-82
2021/12/12 06:35:20;;;;;;;72.10;32.50;;;0.70;99.90;;;;;;4919662;29;20184;-83
2021/12/12 06:38:02;;;;;;;74.77;35.63;;;0.60;99.90;;;;;;4937280;29;20566;-82
2021/12/12 06:40:30;;;;;;;82.90;35.83;;;0.60;99.90;;;;;;4921670;29;20176;-82
2021/12/12 06:43:04;;;;;;;83.57;36.27;;;0.60;99.90;;;;;;4936546;29;20235;-81
2021/12/12 06:45:31;;;;;;;83.77;37.73;;;0.50;99.90;;;;;;4936368;29;20179;-83
2021/12/12 06:47:57;;;;;;;84.00;38.70;;;0.30;99.90;;;;;;4922111;29;20184;-83
2021/12/12 06:50:26;;;;;;;100.63;41.80;;;0.40;99.90;;;;;;4920155;29;20260;-84
2021/12/12 06:52:53;;;;;;;100.97;40.73;;;0.40;99.90;;;;;;4949670;28;20201;-85
2021/12/12 06:55:20;;;;;;;101.27;42.80;;;0.30;99.90;;;;;;4966995;28;20194;-82
2021/12/12 06:57:46;;;;;;;106.60;46.80;;;0.20;99.90;;;;;;4958118;28;20278;-82
2021/12/12 07:00:16;;;;;;;102.37;45.10;;;0.20;99.90;;;;;;4954379;28;20183;-83
2021/12/12 07:02:43;;;;;;;102.73;43.50;;;0.00;99.90;;;;;;4953279;29;20180;-84
2021/12/12 07:05:13;;;;;;;113.80;49.17;;;0.00;99.90;;;;;;4905259;29;20238;-82
2021/12/12 07:07:38;;;;;;;99.73;43.63;;;-0.10;99.90;;;;;;4935989;29;20210;-79
2021/12/12 07:10:07;;;;;;;109.80;45.90;;;-0.10;99.90;;;;;;4917385;29;20652;-81
2021/12/12 07:12:33;;;;;;;107.10;44.53;;;-0.10;99.90;;;;;;4935619;29;20669;-82
2021/12/12 07:14:59;;;;;;;108.93;44.83;;;-0.20;99.90;;;;;;4954002;29;20175;-82
2021/12/12 07:17:26;;;;;;;99.00;35.90;;;-0.20;99.90;;;;;;4953043;29;20212;-83
2021/12/12 07:19:53;;;;;;;113.90;44.10;;;-0.20;99.90;;;;;;4933304;29;20193;-82
2021/12/12 07:22:19;;;;;;;111.90;43.03;;;-0.20;99.90;;;;;;4935860;29;20249;-82
2021/12/12 07:24:46;;;;;;;116.13;42.57;;;-0.30;99.90;;;;;;4952879;29;20489;-81
2021/12/12 07:27:15;;;;;;;122.20;46.27;;;-0.30;99.90;;;;;;4954440;29;20275;-81
2021/12/12 07:29:42;;;;;;;125.73;46.93;;;;;;;;;;4953398;29;20236;-81
2021/12/12 07:32:08;;;;;;;120.67;47.30;;;-0.30;99.90;;;;;;4936925;29;20285;-82
2021/12/12 07:34:36;;;;;;;131.90;52.43;;;-0.30;99.90;;;;;;4953373;28;20262;-85
2021/12/12 07:37:05;;;;;;;141.10;50.70;;;-0.30;99.90;;;;;;4942162;29;20186;-82
2021/12/12 07:39:32;;;;;;;135.10;53.90;;;-0.30;99.90;;;;;;4953709;29;20246;-81
2021/12/12 07:42:00;;;;;;;139.07;50.93;;;-0.30;99.90;;;;;;4927075;29;20265;-81
2021/12/12 07:44:31;;;;;;;127.50;46.53;;;-0.20;99.90;;;;;;4936436;29;20184;-81
2021/12/12 07:46:58;;;;;;;151.63;51.50;;;-0.40;99.90;;;;;;4953385;29;20197;-83
2021/12/12 07:49:28;;;;;;;160.13;56.10;;;-0.40;99.90;;;;;;4961957;28;20316;-81
2021/12/12 07:51:55;;;;;;;126.63;47.40;;;-0.40;99.90;;;;;;4962322;28;20186;-81
2021/12/12 07:54:21;;;;;;;144.60;49.53;;;-0.40;99.90;;;;;;4954835;28;20206;-81
2021/12/12 07:56:49;;;;;;;132.13;48.13;;;-0.30;99.90;;;;;;4957900;28;20190;-81
2021/12/12 07:59:17;;;;;;;129.97;45.33;;;-0.40;99.90;;;;;;4940955;29;20213;-83
2021/12/12 08:01:46;;;;;;;138.17;46.30;;;-0.40;99.90;;;;;;4959195;29;20179;-83
2021/12/12 08:04:14;;;;;;;135.80;47.23;;;-0.40;99.90;;;;;;4955261;29;20190;-85
2021/12/12 08:06:41;;;;;;;143.53;48.43;;;-0.30;99.90;;;;;;4959845;28;20276;-84
2021/12/12 08:09:08;;;;;;;149.10;51.20;;;-0.30;99.90;;;;;;4937778;29;20245;-82
2021/12/12 08:11:35;;;;;;;135.00;48.87;;;-0.40;99.90;;;;;;4958322;28;20267;-80
2021/12/12 08:14:05;;;;;;;145.37;50.57;;;-0.10;99.90;;;;;;4940095;29;20198;-81
2021/12/12 08:16:31;;;;;;;152.13;51.90;;;-0.40;99.90;;;;;;4956499;28;20182;-82
2021/12/12 08:18:59;;;;;;;147.30;49.83;;;-0.40;99.90;;;;;;4940508;29;20302;-81
2021/12/12 08:21:25;;;;;;;159.80;54.27;;;-0.40;99.90;;;;;;4971597;28;20199;-82
2021/12/12 08:23:53;;;;;;;164.83;54.90;;;-0.40;99.90;;;;;;4957814;29;20183;-81
2021/12/12 08:26:21;;;;;;;171.50;55.20;;;-0.60;99.90;;;;;;4971744;28;20245;-84
2021/12/12 08:28:48;;;;;;;160.93;53.43;;;-0.40;99.90;;;;;;4974649;28;20257;-81
2021/12/12 08:31:15;;;;;;;152.70;52.33;;;-0.40;99.90;;;;;;4943302;29;20272;-81
2021/12/12 08:33:41;;;;;;;140.93;50.80;;;-0.30;99.90;;;;;;4934739;29;20180;-81
2021/12/12 08:36:08;;;;;;;166.10;53.37;;;-0.40;99.90;;;;;;4936373;29;20189;-81
2021/12/12 08:38:35;;;;;;;165.30;58.30;;;-0.40;99.90;;;;;;4958139;29;20247;-81
2021/12/12 08:41:05;;;;;;;150.70;54.27;;;-0.40;99.90;;;;;;4960617;28;20287;-81
2021/12/12 08:43:32;;;;;;;158.60;57.13;;;-0.50;99.90;;;;;;4956684;29;20260;-81
2021/12/12 08:46:09;;;;;;;159.70;55.00;;;-0.40;99.90;;;;;;4956730;29;20185;-81
2021/12/12 08:48:39;;;;;;;159.87;56.60;;;-0.40;99.90;;;;;;4937757;29;20196;-81
2021/12/12 08:51:14;;;;;;;172.27;54.87;;;-0.40;99.90;;;;;;4954427;28;20191;-82
2021/12/12 08:53:41;;;;;;;169.63;56.77;;;-0.30;99.90;;;;;;4950589;29;20171;-82
2021/12/12 08:56:19;;;;;;;153.93;53.60;;;-0.30;99.90;;;;;;4929428;29;20190;-81
2021/12/12 08:58:45;;;;;;;149.77;50.73;;;-0.30;99.90;;;;;;4944537;29;20203;-80
2021/12/12 09:01:16;;;;;;;147.90;45.97;;;-0.30;99.90;;;;;;4952637;29;20644;-81
2021/12/12 09:03:49;;;;;;;153.23;52.50;;;-0.30;99.90;;;;;;4953793;29;20713;-82
2021/12/12 09:06:16;;;;;;;140.77;50.07;;;-0.20;99.90;;;;;;4937718;29;20256;-78
2021/12/12 09:08:49;;;;;;;143.27;45.77;;;-0.40;99.90;;;;;;4957549;29;20190;-82
2021/12/12 09:11:33;;;;;;;133.47;48.33;;;-0.40;99.90;;;;;;4941136;29;20194;-81
2021/12/12 09:14:20;;;;;;;138.63;45.83;;;-0.50;99.90;;;;;;4935822;29;20186;-80
2021/12/12 09:16:53;;;;;;;137.33;46.10;;;0.00;99.90;;;;;;4955793;29;20168;-80
2021/12/12 09:19:25;;;;;;;152.80;54.20;;;-0.50;99.90;;;;;;4956501;28;20219;-80
2021/12/12 09:22:04;;;;;;;124.47;42.60;;;-0.30;99.90;;;;;;4955946;28;20283;-80
2021/12/12 09:24:29;;;;;;;129.77;44.67;;;-0.50;99.90;;;;;;4985114;28;20213;-83
2021/12/12 09:27:01;;;;;;;133.07;45.23;;;-0.50;99.90;;;;;;4987734;28;20238;-83
2021/12/12 09:29:39;;;;;;;146.27;53.17;;;-0.50;99.90;;;;;;4971429;28;20225;-85
2021/12/12 09:32:21;;;;;;;160.23;57.00;;;-0.50;99.90;;;;;;4987789;28;20184;-82
2021/12/12 09:35:18;;;;;;;150.90;50.60;;;-0.60;99.90;;;;;;4969424;28;20201;-80
2021/12/12 09:38:03;;;;;;;154.00;48.13;;;-0.60;99.90;;;;;;4966582;29;20208;-84
2021/12/12 09:40:43;;;;;;;183.07;62.07;;;-0.60;99.90;;;;;;4960427;29;20204;-82
2021/12/12 09:43:34;;;;;;;179.23;61.80;;;-0.70;99.90;;;;;;4973823;28;20242;-83
2021/12/12 09:46:03;;;;;;;181.20;58.20;;;-0.80;99.90;;;;;;4950268;29;20192;-86
2021/12/12 09:51:42;;;;;;;162.33;55.10;;;-0.80;99.90;;;;;;4959326;28;20198;-81
2021/12/12 09:54:47;;;;;;;162.00;51.40;;;-0.70;99.90;;;;;;4958846;28;20190;-80
2021/12/12 09:57:42;;;;;;;176.73;55.70;;;0.00;99.90;;;;;;4939160;28;20198;-81
2021/12/12 10:00:40;;;;;;;182.87;58.97;;;-0.50;99.90;;;;;;4910043;29;20206;-85
2021/12/12 10:03:17;;;;;;;172.17;58.73;;;-0.50;99.90;;;;;;4946621;28;20800;-81
2021/12/12 10:05:46;;;;;;;184.47;60.80;;;-0.50;99.90;;;;;;4957533;28;20180;-82
2021/12/12 10:08:34;;;;;;;130.97;40.50;;;-0.50;99.90;;;;;;4955085;29;20258;-81
2021/12/12 10:11:30;;;;;;;200.07;68.13;;;-0.50;99.90;;;;;;4966549;28;20575;-85
2021/12/12 10:14:30;;;;;;;196.57;66.00;;;-0.50;99.90;;;;;;4937871;29;20614;-82
2021/12/12 10:17:02;;;;;;;163.17;55.70;;;-0.50;99.90;;;;;;4907374;29;20223;-81
2021/12/12 10:19:46;;;;;;;206.60;64.90;;;-0.50;99.90;;;;;;4951642;29;20222;-83
2021/12/12 10:23:16;;;;;;;202.83;59.43;;;-0.50;99.90;;;;;;4948054;29;20189;-82
2021/12/12 10:25:45;;;;;;;172.87;54.43;;;-0.60;99.90;;;;;;4853018;29;20318;-83
2021/12/12 10:28:28;;;;;;;168.40;54.40;;;-0.50;99.90;;;;;;4856913;29;20241;-84
2021/12/12 10:31:03;;;;;;;208.93;68.60;;;-0.50;99.90;;;;;;4903858;28;20603;-81
2021/12/12 10:33:41;;;;;;;193.57;65.93;;;-0.60;99.90;;;;;;4963818;28;20709;-82
2021/12/12 10:36:35;;;;;;;204.27;69.03;;;-0.80;99.90;;;;;;4951942;28;20229;-83
2021/12/12 10:39:13;;;;;;;175.73;58.10;;;-0.90;99.90;;;;;;4915781;28;20242;-82
2021/12/12 10:41:43;;;;;;;189.13;55.63;;;-0.80;99.90;;;;;;4937573;29;20198;-82
2021/12/12 10:44:14;;;;;;;174.83;59.57;;;-0.70;99.90;;;;;;4951823;28;20259;-82
2021/12/12 10:47:14;;;;;;;190.90;58.93;;;-0.80;99.90;;;;;;4954590;29;20190;-82
2021/12/12 10:50:17;;;;;;;170.47;55.93;;;-0.70;99.90;;;;;;4934083;29;20188;-81
2021/12/12 10:52:47;;;;;;;163.27;47.37;;;-0.70;99.90;;;;;;4959044;28;20190;-82
2021/12/12 10:55:24;;;;;;;171.60;59.90;;;-0.60;99.90;;;;;;4949536;29;20597;-81
2021/12/12 10:58:14;;;;;;;177.77;60.73;;;-0.60;99.90;;;;;;4933001;29;20226;-82
2021/12/12 11:01:04;;;;;;;157.47;54.57;;;-0.70;99.90;;;;;;4928129;28;20636;-83
2021/12/12 11:03:38;;;;;;;180.03;64.33;;;-0.70;99.90;;;;;;4939524;29;20571;-83
2021/12/12 11:06:16;;;;;;;167.17;57.73;;;-0.70;99.90;;;;;;4950026;28;20193;-82
2021/12/12 11:09:20;;;;;;;184.00;60.47;;;-0.80;99.90;;;;;;4937179;29;20289;-83
2021/12/12 11:12:19;;;;;;;173.67;55.97;;;-0.90;99.90;;;;;;4954721;29;20220;-83
2021/12/12 11:15:02;;;;;;;148.10;49.10;;;-0.90;99.90;;;;;;4947257;29;20181;-82
2021/12/12 11:17:37;;;;;;;173.53;54.63;;;-0.80;99.90;;;;;;4953138;28;20704;-81
2021/12/12 11:20:06;;;;;;;169.50;53.17;;;-0.80;99.90;;;;;;4961207;28;20666;-81
2021/12/12 11:22:32;;;;;;;178.67;57.93;;;;;;;;;;4936398;29;20504;-81
2021/12/12 11:25:04;;;;;;;163.87;51.53;;;-0.80;99.90;;;;;;4936848;29;20241;-84
2021/12/12 11:27:34;;;;;;;185.33;60.23;;;-0.70;99.90;;;;;;4936432;28;20191;-80
2021/12/12 11:30:07;;;;;;;149.90;46.33;;;-0.70;99.90;;;;;;4953057;29;20176;-81
2021/12/12 11:32:35;;;;;;;171.87;56.57;;;-0.70;99.90;;;;;;4941063;28;20189;-82
2021/12/12 11:35:03;;;;;;;171.63;60.97;;;-0.70;99.90;;;;;;4920780;29;20200;-81
2021/12/12 11:37:49;;;;;;;169.73;61.53;;;-0.70;99.90;;;;;;4924157;28;20213;-81
2021/12/12 11:40:20;;;;;;;164.13;61.67;;;-0.70;99.90;;;;;;4953726;29;20235;-80
2021/12/12 11:43:01;;;;;;;165.20;55.73;;;-0.80;99.90;;;;;;4951403;29;20211;-81
2021/12/12 11:45:32;;;;;;;163.87;59.00;;;-0.90;99.90;;;;;;4953635;29;20268;-80
2021/12/12 11:48:16;;;;;;;182.00;64.20;;;-0.50;99.90;;;;;;4941031;28;20183;-82
2021/12/12 11:50:46;;;;;;;171.20;57.17;;;-0.90;99.90;;;;;;4953785;29;20522;-82
2021/12/12 11:53:15;;;;;;;182.67;66.43;;;-0.70;99.90;;;;;;4932501;29;20179;-81
2021/12/12 11:56:00;;;;;;;143.17;48.87;;;-0.90;99.90;;;;;;4958430;28;20593;-81
2021/12/12 11:58:40;;;;;;;180.10;62.93;;;-1.20;99.90;;;;;;4933444;29;20233;-81
2021/12/12 12:01:11;;;;;;;166.00;55.10;;;-1.20;99.90;;;;;;4935719;29;20593;-80
2021/12/12 12:04:10;;;;;;;171.93;57.50;;;-1.30;99.90;;;;;;4954103;29;20187;-82
2021/12/12 12:06:35;;;;;;;159.93;57.33;;;-1.20;99.90;;;;;;4945211;29;20270;-83
2021/12/12 12:09:28;;;;;;;155.73;54.60;;;-1.20;99.90;;;;;;4946899;28;20285;-81
2021/12/12 12:12:19;;;;;;;143.63;49.10;;;-1.20;99.90;;;;;;4934724;29;20181;-81
2021/12/12 12:14:52;;;;;;;163.17;56.50;;;-1.20;99.90;;;;;;4936516;29;20584;-81
2021/12/12 12:17:57;;;;;;;151.40;47.87;;;-0.90;99.90;;;;;;4948700;29;20190;-81
2021/12/12 12:20:28;;;;;;;154.50;52.67;;;-1.20;99.90;;;;;;4951364;29;20200;-81
2021/12/12 12:23:05;;;;;;;153.37;51.17;;;-1.20;99.90;;;;;;4953395;29;20189;-81
2021/12/12 12:28:52;;;;;;;149.23;52.70;;;-1.10;99.90;;;;;;4953637;28;20252;-82
2021/12/12 12:31:39;;;;;;;134.37;47.90;;;-1.10;99.90;;;;;;4943825;29;20220;-82
2021/12/12 12:34:42;;;;;;;147.77;51.00;;;-1.00;99.90;;;;;;4905194;29;20229;-82
2021/12/12 12:37:27;;;;;;;118.53;43.03;;;-1.10;99.90;;;;;;4961383;28;20273;-81
2021/12/12 12:40:20;;;;;;;144.73;48.53;;;-1.10;99.90;;;;;;4946147;28;20194;-82
2021/12/12 12:43:23;;;;;;;118.07;42.10;;;-1.10;99.90;;;;;;4959350;28;20176;-82
2021/12/12 12:46:15;;;;;;;132.53;43.47;;;-1.00;99.90;;;;;;4968347;28;20189;-80
2021/12/12 12:49:19;;;;;;;127.33;39.87;;;-1.00;99.90;;;;;;4934778;29;20407;-82
2021/12/12 12:52:03;;;;;;;143.63;45.07;;;-1.00;99.90;;;;;;4954806;29;20194;-80
2021/12/12 12:54:38;;;;;;;124.83;42.73;;;-0.90;99.90;;;;;;4961856;28;20235;-83
2021/12/12 12:57:37;;;;;;;126.33;44.27;;;-0.90;99.90;;;;;;4955472;29;20842;-83
2021/12/12 13:00:13;;;;;;;128.33;43.93;;;-0.90;99.90;;;;;;4958045;28;20202;-83
2021/12/12 13:03:08;;;;;;;116.60;42.07;;;-0.80;99.90;;;;;;4959488;28;20241;-82
2021/12/12 13:05:56;;;;;;;130.23;44.60;;;-0.80;99.90;;;;;;4962208;28;20197;-83
2021/12/12 13:08:47;;;;;;;123.90;43.07;;;-0.80;99.90;;;;;;4931313;29;20254;-82
2021/12/12 13:11:20;;;;;;;121.20;43.20;;;-0.80;99.90;;;;;;4962818;28;20195;-82
2021/12/12 13:14:20;;;;;;;134.70;45.37;;;-0.60;99.90;;;;;;4957574;29;20189;-82
2021/12/12 13:16:58;;;;;;;127.73;44.13;;;-0.80;99.90;;;;;;4951913;28;20195;-81
2021/12/12 13:19:42;;;;;;;146.63;49.40;;;-0.80;99.90;;;;;;4951757;29;20364;-82
2021/12/12 13:22:18;;;;;;;133.57;45.17;;;-0.80;99.90;;;;;;4957556;28;20193;-82
2021/12/12 13:24:47;;;;;;;139.43;45.13;;;-0.60;99.90;;;;;;4961166;28;20185;-82
2021/12/12 13:27:57;;;;;;;143.60;48.30;;;-0.80;99.90;;;;;;4956864;29;20196;-82